Time;durP1;ratioP1;P1;durP2;ratioP2;P2;SDS_P1;SDS_P2;PMS_P1;PMS_P2;Temp;Humidity;BMP_temperature;BMP_pressure;BME280_temperature;BME280_humidity;BME280_pressure;Samples;Min_cycle;Max_cycle;Signal;HPM_P1;HPM_P2
2022/05/15 00:01:49;;;;;;;11.57;3.27;;;;;13.70;101534.00;;;;4927517;29;20337;-72
2022/05/15 00:04:36;;;;;;;10.50;3.43;;;;;13.70;101543.00;;;;4927173;29;20869;-70
2022/05/15 00:07:23;;;;;;;13.83;3.63;;;;;13.70;101532.00;;;;4929487;29;20296;-70
2022/05/15 00:10:10;;;;;;;12.20;3.93;;;;;13.70;101529.00;;;;4929786;29;20208;-69
2022/05/15 00:12:58;;;;;;;9.17;3.90;;;;;13.60;101537.00;;;;4929138;29;20253;-71
2022/05/15 00:15:44;;;;;;;6.77;3.37;;;;;13.50;101531.00;;;;4929275;29;20216;-71
2022/05/15 00:18:30;;;;;;;10.03;3.30;;;;;13.50;101526.00;;;;4927957;29;20213;-71
2022/05/15 00:21:16;;;;;;;9.67;3.53;;;;;13.30;101540.00;;;;4928884;29;20317;-71
2022/05/15 00:24:03;;;;;;;10.37;3.60;;;;;13.30;101539.00;;;;4927179;29;20402;-70
2022/05/15 00:26:51;;;;;;;12.27;3.60;;;;;13.40;101509.00;;;;4926081;29;20296;-71
2022/05/15 00:29:38;;;;;;;11.67;3.40;;;;;13.40;101537.00;;;;4928562;29;20348;-70
2022/05/15 00:32:24;;;;;;;7.97;3.10;;;;;13.30;101528.00;;;;4923014;29;20742;-70
2022/05/15 00:35:11;;;;;;;12.23;3.73;;;;;13.30;101533.00;;;;4928564;29;20236;-71
2022/05/15 00:37:57;;;;;;;7.27;3.73;;;;;13.30;101524.00;;;;4928705;29;20264;-71
2022/05/15 00:40:47;;;;;;;8.13;3.87;;;;;13.30;101530.00;;;;4925094;29;20233;-69
2022/05/15 00:43:44;;;;;;;11.13;3.73;;;;;13.30;101523.00;;;;4929941;29;20235;-71
2022/05/15 00:46:32;;;;;;;8.90;3.73;;;;;13.40;101517.00;;;;4924918;29;20225;-72
2022/05/15 00:49:19;;;;;;;11.67;4.27;;;;;13.50;101517.00;;;;4929054;29;20217;-70
2022/05/15 00:52:10;;;;;;;12.77;4.00;;;;;13.60;101520.00;;;;4930635;29;20556;-71
2022/05/15 00:55:00;;;;;;;9.60;3.30;;;;;13.60;101521.00;;;;4927905;29;20245;-70
2022/05/15 00:57:50;;;;;;;11.20;3.73;;;;;13.50;101518.00;;;;4922071;29;20833;-68
2022/05/15 01:00:41;;;;;;;10.00;4.20;;;;;13.50;101515.00;;;;4929976;29;20329;-71
2022/05/15 01:03:27;;;;;;;9.37;3.60;;;;;13.50;101529.00;;;;4924709;29;20605;-71
2022/05/15 01:06:14;;;;;;;9.27;3.70;;;;;13.40;101517.00;;;;4914785;29;20881;-71
2022/05/15 01:09:02;;;;;;;9.37;3.53;;;;;13.40;101512.00;;;;4921700;29;20297;-72
2022/05/15 01:11:49;;;;;;;9.70;3.67;;;;;13.30;101521.00;;;;4929408;29;20220;-70
2022/05/15 01:14:36;;;;;;;9.80;3.73;;;;;13.20;101516.00;;;;4928674;29;20349;-70
2022/05/15 01:17:24;;;;;;;7.90;3.90;;;;;13.20;101513.00;;;;4923634;29;20219;-70
2022/05/15 01:20:14;;;;;;;9.30;3.80;;;;;13.10;101518.00;;;;4922181;29;20292;-70
2022/05/15 01:23:02;;;;;;;8.57;3.43;;;;;13.20;101522.00;;;;4929223;29;20353;-69
2022/05/15 01:25:48;;;;;;;6.57;3.30;;;;;13.10;101523.00;;;;4929379;29;20224;-70
2022/05/15 01:28:34;;;;;;;8.77;3.40;;;;;13.10;101522.00;;;;4929621;29;20579;-70
2022/05/15 01:31:21;;;;;;;11.97;3.90;;;;;13.10;101519.00;;;;4921152;29;20208;-70
2022/05/15 01:34:09;;;;;;;9.40;4.03;;;;;13.00;101516.00;;;;4920763;29;20240;-72
2022/05/15 01:36:55;;;;;;;10.53;4.27;;;;;12.90;101525.00;;;;4921230;29;20612;-71
2022/05/15 01:39:43;;;;;;;7.13;3.60;;;;;12.90;101515.00;;;;4932186;29;20213;-71
2022/05/15 01:42:29;;;;;;;6.83;3.23;;;;;12.90;101511.00;;;;4916145;29;20232;-70
2022/05/15 01:45:16;;;;;;;10.23;3.80;;;;;12.80;101512.00;;;;4920612;29;20228;-70
2022/05/15 01:48:03;;;;;;;14.67;4.00;;;;;12.80;101509.00;;;;4921255;29;20496;-69
2022/05/15 01:50:49;;;;;;;14.27;4.10;;;;;12.70;101511.00;;;;4928959;29;20288;-70
2022/05/15 01:53:35;;;;;;;12.50;3.43;;;;;12.70;101508.00;;;;4928630;29;20232;-70
2022/05/15 01:56:23;;;;;;;12.63;3.87;;;;;12.70;101513.00;;;;4922342;29;20288;-72
2022/05/15 01:59:10;;;;;;;7.80;3.67;;;;;12.60;101506.00;;;;4928784;29;20216;-71
2022/05/15 02:01:56;;;;;;;6.33;3.57;;;;;12.50;101510.00;;;;4927946;29;20236;-71
2022/05/15 02:04:42;;;;;;;5.73;3.40;;;;;12.40;101508.00;;;;4923915;29;20241;-71
2022/05/15 02:07:29;;;;;;;10.67;3.93;;;;;12.30;101513.00;;;;4927756;29;20308;-71
2022/05/15 02:10:16;;;;;;;11.57;3.90;;;;;12.20;101509.00;;;;4925725;29;20205;-71
2022/05/15 02:13:04;;;;;;;7.97;3.43;;;;;12.10;101509.00;;;;4931899;29;20216;-70
2022/05/15 02:15:51;;;;;;;10.30;3.90;;;;;12.10;101484.00;;;;4925017;29;20233;-70
2022/05/15 02:18:37;;;;;;;9.73;3.60;;;;;12.10;101501.00;;;;4918893;29;20218;-70
2022/05/15 02:21:24;;;;;;;10.60;3.63;;;;;12.00;101492.00;;;;4932538;29;20650;-71
2022/05/15 02:24:10;;;;;;;6.77;3.50;;;;;12.00;101506.00;;;;4924122;29;20310;-70
2022/05/15 02:26:56;;;;;;;9.27;3.63;;;;;12.00;101511.00;;;;4924550;29;20577;-71
2022/05/15 02:29:44;;;;;;;8.10;3.87;;;;;11.90;101501.00;;;;4932637;29;20219;-71
2022/05/15 02:32:30;;;;;;;12.30;3.47;;;;;11.90;101498.00;;;;4925603;29;20216;-70
2022/05/15 02:35:18;;;;;;;12.17;3.40;;;;;11.90;101504.00;;;;4913464;29;20237;-70
2022/05/15 02:38:04;;;;;;;11.83;3.40;;;;;11.80;101495.00;;;;4931202;29;20742;-71
2022/05/15 02:40:51;;;;;;;7.20;3.23;;;;;11.70;101494.00;;;;4921876;29;20269;-71
2022/05/15 02:43:37;;;;;;;11.47;3.67;;;;;11.70;101492.00;;;;4932194;29;20371;-71
2022/05/15 02:46:25;;;;;;;8.43;3.80;;;;;11.70;101497.00;;;;4932190;29;20289;-71
2022/05/15 02:52:15;;;;;;;6.87;3.37;;;;;11.50;101500.00;;;;4921250;29;20576;-70
2022/05/15 02:55:02;;;;;;;7.13;3.23;;;;;11.50;101496.00;;;;4930369;29;20232;-70
2022/05/15 02:57:48;;;;;;;10.53;4.17;;;;;11.50;101496.00;;;;4928867;29;20253;-71
2022/05/15 03:00:35;;;;;;;5.53;3.53;;;;;11.50;101489.00;;;;4932713;29;20261;-72
2022/05/15 03:03:22;;;;;;;9.60;3.43;;;;;11.50;101485.00;;;;4923585;29;20232;-70
2022/05/15 03:06:09;;;;;;;14.40;3.17;;;;;11.40;101491.00;;;;4934622;29;20257;-70
2022/05/15 03:08:55;;;;;;;7.53;3.83;;;;;11.40;101492.00;;;;4929215;29;20763;-70
2022/05/15 03:11:41;;;;;;;8.40;3.10;;;;;11.40;101495.00;;;;4932325;29;20212;-71
2022/05/15 03:14:28;;;;;;;8.63;3.40;;;;;11.30;101490.00;;;;4932996;28;20232;-70
2022/05/15 03:17:16;;;;;;;13.57;3.80;;;;;11.40;101490.00;;;;4932091;29;20220;-70
2022/05/15 03:20:04;;;;;;;5.83;3.20;;;;;11.30;101495.00;;;;4931660;29;20243;-70
2022/05/15 03:22:50;;;;;;;13.50;4.13;;;;;11.30;101490.00;;;;4931072;29;21014;-71
2022/05/15 03:25:37;;;;;;;6.17;2.87;;;;;11.30;101475.00;;;;4926520;29;20217;-70
2022/05/15 03:28:24;;;;;;;5.53;3.30;;;;;11.20;101485.00;;;;4925136;29;20324;-71
2022/05/15 03:31:10;;;;;;;6.23;3.37;;;;;11.30;101488.00;;;;4931742;29;20891;-71
2022/05/15 03:33:56;;;;;;;6.40;3.10;;;;;11.30;101494.00;;;;4930868;29;20268;-71
2022/05/15 03:36:46;;;;;;;11.40;3.80;;;;;11.30;101488.00;;;;4931297;29;20350;-70
2022/05/15 03:39:33;;;;;;;7.90;3.40;;;;;11.30;101483.00;;;;4931698;29;20208;-70
2022/05/15 03:42:19;;;;;;;10.37;4.33;;;;;11.40;101491.00;;;;4924080;29;20212;-70
2022/05/15 03:45:06;;;;;;;5.43;3.30;;;;;11.40;101488.00;;;;4931090;29;20232;-68
2022/05/15 03:47:55;;;;;;;5.07;3.23;;;;;11.40;101478.00;;;;4931144;29;20208;-69
2022/05/15 03:50:41;;;;;;;8.87;4.20;;;;;11.50;101480.00;;;;4924740;29;20225;-71
2022/05/15 03:53:29;;;;;;;10.50;3.70;;;;;11.50;101482.00;;;;4924049;29;20224;-70
2022/05/15 03:56:15;;;;;;;11.03;3.70;;;;;11.60;101487.00;;;;4930772;29;20232;-69
2022/05/15 03:59:01;;;;;;;11.43;3.50;;;;;11.40;101481.00;;;;4930797;29;20237;-71
2022/05/15 04:01:48;;;;;;;8.93;3.73;;;;;11.50;101478.00;;;;4928699;29;20209;-70
2022/05/15 04:04:34;;;;;;;7.63;3.50;;;;;11.60;101479.00;;;;4929731;29;20280;-71
2022/05/15 04:07:20;;;;;;;11.03;3.93;;;;;11.60;101477.00;;;;4918183;29;20260;-70
2022/05/15 04:10:10;;;;;;;10.10;3.70;;;;;11.70;101485.00;;;;4930496;29;20213;-71
2022/05/15 04:12:57;;;;;;;9.30;3.60;;;;;11.80;101479.00;;;;4924358;29;20602;-70
2022/05/15 04:15:43;;;;;;;8.67;3.70;;;;;12.00;101480.00;;;;4926943;29;20815;-70
2022/05/15 04:18:29;;;;;;;11.63;3.40;;;;;12.10;101483.00;;;;4923934;29;20221;-70
2022/05/15 04:21:15;;;;;;;6.60;4.17;;;;;12.20;101484.00;;;;4927842;29;20218;-71
2022/05/15 04:24:01;;;;;;;9.80;3.30;;;;;12.20;101442.00;;;;4911797;29;20257;-71
2022/05/15 04:26:49;;;;;;;6.77;3.57;;;;;12.20;101474.00;;;;4913627;29;20601;-71
2022/05/15 04:29:36;;;;;;;8.80;3.77;;;;;12.50;101479.00;;;;4913918;29;20354;-70
2022/05/15 04:32:22;;;;;;;6.53;4.13;;;;;12.50;101482.00;;;;4911647;29;20229;-71
2022/05/15 04:35:10;;;;;;;11.40;3.80;;;;;12.50;101468.00;;;;4913311;29;20373;-71
2022/05/15 04:37:56;;;;;;;8.90;3.67;;;;;12.60;101482.00;;;;4921192;29;20220;-70
2022/05/15 04:40:43;;;;;;;10.10;3.63;;;;;12.60;101471.00;;;;4925862;29;20216;-70
2022/05/15 04:43:30;;;;;;;7.93;4.83;;;;;12.60;101480.00;;;;4923844;29;20225;-71
2022/05/15 04:46:17;;;;;;;6.47;3.23;;;;;12.60;101482.00;;;;4928970;29;20221;-69
2022/05/15 04:49:05;;;;;;;6.60;3.67;;;;;12.70;101477.00;;;;4921431;29;20221;-71
2022/05/15 04:51:51;;;;;;;8.53;3.57;;;;;12.70;101477.00;;;;4930376;29;20994;-70
2022/05/15 04:54:38;;;;;;;12.60;3.80;;;;;12.70;101474.00;;;;4918845;29;20918;-70
2022/05/15 04:57:24;;;;;;;8.53;3.60;;;;;12.70;101489.00;;;;4922381;29;20228;-70
2022/05/15 05:00:17;;;;;;;12.07;4.20;;;;;12.70;101484.00;;;;4929777;29;20995;-70
2022/05/15 05:03:05;;;;;;;6.27;3.63;;;;;12.90;101486.00;;;;4929149;29;20751;-71
2022/05/15 05:05:51;;;;;;;10.63;4.17;;;;;12.80;101487.00;;;;4930493;29;20217;-70
2022/05/15 05:08:37;;;;;;;8.83;3.90;;;;;12.80;101484.00;;;;4924166;29;20232;-69
2022/05/15 05:11:24;;;;;;;5.77;3.57;;;;;12.90;101486.00;;;;4924368;29;20205;-71
2022/05/15 05:14:10;;;;;;;13.40;4.00;;;;;12.90;101490.00;;;;4928858;29;20275;-71
2022/05/15 05:16:57;;;;;;;9.67;4.00;;;;;12.90;101478.00;;;;4921562;29;20380;-69
2022/05/15 05:19:44;;;;;;;9.13;4.63;;;;;12.90;101487.00;;;;4929681;29;20212;-70
2022/05/15 05:22:30;;;;;;;10.27;3.90;;;;;13.00;101484.00;;;;4922684;29;20225;-70
2022/05/15 05:25:17;;;;;;;6.47;4.07;;;;;13.00;101489.00;;;;4920516;29;20354;-68
2022/05/15 05:28:05;;;;;;;10.23;4.27;;;;;13.00;101492.00;;;;4927975;29;20221;-70
2022/05/15 05:30:52;;;;;;;8.70;4.37;;;;;13.20;101496.00;;;;4919857;29;20216;-71
2022/05/15 05:33:40;;;;;;;13.87;4.33;;;;;13.20;101502.00;;;;4929844;29;20232;-71
2022/05/15 05:36:26;;;;;;;8.83;4.17;;;;;13.20;101504.00;;;;4917528;29;20233;-70
2022/05/15 05:39:13;;;;;;;10.03;3.97;;;;;13.20;101509.00;;;;4919256;29;20354;-71
2022/05/15 05:41:59;;;;;;;8.37;4.30;;;;;13.20;101519.00;;;;4921149;29;20706;-70
2022/05/15 05:44:45;;;;;;;11.03;4.40;;;;;13.30;101519.00;;;;4921385;29;20380;-71
2022/05/15 05:47:32;;;;;;;13.40;4.07;;;;;13.30;101518.00;;;;4929419;29;20552;-71
2022/05/15 05:50:22;;;;;;;9.63;4.17;;;;;13.40;101513.00;;;;4928810;29;20216;-70
2022/05/15 05:53:09;;;;;;;6.83;4.47;;;;;13.60;101517.00;;;;4922859;29;20317;-71
2022/05/15 05:55:56;;;;;;;9.73;4.53;;;;;13.50;101517.00;;;;4927800;29;20221;-71
2022/05/15 05:58:42;;;;;;;16.23;4.10;;;;;13.60;101521.00;;;;4926693;29;20212;-70
2022/05/15 06:01:28;;;;;;;9.90;4.23;;;;;13.60;101524.00;;;;4927565;29;20208;-71
2022/05/15 06:07:22;;;;;;;16.37;4.50;;;;;13.80;101528.00;;;;4928106;29;20697;-70
2022/05/15 06:10:11;;;;;;;8.13;4.30;;;;;13.90;101533.00;;;;4928393;29;20647;-69
2022/05/15 06:12:57;;;;;;;14.10;5.77;;;;;13.90;101524.00;;;;4927209;29;20208;-70
2022/05/15 06:15:44;;;;;;;7.53;4.33;;;;;14.00;101517.00;;;;4917713;29;20220;-73
2022/05/15 06:18:33;;;;;;;8.03;4.40;;;;;14.00;101516.00;;;;4920769;29;20261;-71
2022/05/15 06:21:19;;;;;;;10.20;4.43;;;;;14.10;101523.00;;;;4920482;29;20216;-71
2022/05/15 06:24:08;;;;;;;9.17;4.37;;;;;14.20;101528.00;;;;4927897;29;20244;-70
2022/05/15 06:26:57;;;;;;;8.87;4.23;;;;;14.30;101507.00;;;;4928593;29;20284;-71
2022/05/15 06:29:43;;;;;;;11.50;4.80;;;;;14.40;101512.00;;;;4923099;29;20269;-71
2022/05/15 06:32:29;;;;;;;12.73;4.97;;;;;14.40;101521.00;;;;4917343;29;20205;-71
2022/05/15 06:35:16;;;;;;;13.27;4.87;;;;;14.60;101512.00;;;;4924752;29;20276;-71
2022/05/15 06:38:04;;;;;;;14.40;5.37;;;;;14.70;101511.00;;;;4924488;29;20237;-72
2022/05/15 06:40:52;;;;;;;11.90;4.90;;;;;14.80;101512.00;;;;4928532;29;20860;-71
2022/05/15 06:43:38;;;;;;;13.93;5.00;;;;;14.80;101503.00;;;;4916556;29;20273;-71
2022/05/15 06:46:25;;;;;;;15.53;4.67;;;;;14.90;101507.00;;;;4927580;29;20220;-71
2022/05/15 06:49:11;;;;;;;12.47;4.77;;;;;14.90;101513.00;;;;4925649;29;20570;-73
2022/05/15 06:51:58;;;;;;;9.93;4.77;;;;;15.20;101509.00;;;;4924326;29;20704;-71
2022/05/15 06:54:45;;;;;;;11.70;4.90;;;;;15.20;101515.00;;;;4918382;29;20357;-71
2022/05/15 06:57:32;;;;;;;10.87;4.97;;;;;15.20;101516.00;;;;4924518;29;20232;-71
2022/05/15 07:00:22;;;;;;;12.70;4.97;;;;;15.30;101513.00;;;;4931497;29;20212;-71
2022/05/15 07:03:08;;;;;;;9.70;4.53;;;;;15.40;101509.00;;;;4935580;29;20352;-71
2022/05/15 07:05:54;;;;;;;8.67;4.77;;;;;15.60;101503.00;;;;4932588;29;20757;-71
2022/05/15 07:08:41;;;;;;;8.57;4.30;;;;;15.70;101507.00;;;;4920187;29;20841;-72
2022/05/15 07:11:27;;;;;;;11.97;5.60;;;;;15.70;101505.00;;;;4937167;29;20725;-70
2022/05/15 07:14:15;;;;;;;10.80;4.83;;;;;15.90;101517.00;;;;4930640;29;20364;-71
2022/05/15 07:17:01;;;;;;;8.27;4.67;;;;;16.10;101506.00;;;;4931135;29;20228;-71
2022/05/15 07:19:47;;;;;;;15.13;5.20;;;;;16.20;101509.00;;;;4929283;29;20257;-71
2022/05/15 07:22:34;;;;;;;8.33;4.30;;;;;16.30;101503.00;;;;4923487;29;20232;-70
2022/05/15 07:25:20;;;;;;;9.93;4.50;;;;;16.40;101500.00;;;;4923299;29;20227;-68
2022/05/15 07:28:07;;;;;;;9.63;4.30;;;;;16.60;101506.00;;;;4923050;29;21003;-70
2022/05/15 07:30:54;;;;;;;13.57;4.83;;;;;16.80;101509.00;;;;4920275;29;20217;-70
2022/05/15 07:33:42;;;;;;;8.33;4.80;;;;;16.90;101508.00;;;;4919671;29;20320;-68
2022/05/15 07:36:28;;;;;;;7.27;4.50;;;;;17.00;101507.00;;;;4928785;29;20284;-71
2022/05/15 07:39:14;;;;;;;6.27;4.20;;;;;17.20;101510.00;;;;4920714;29;20781;-71
2022/05/15 07:42:01;;;;;;;11.23;4.47;;;;;17.40;101524.00;;;;4931080;29;20319;-70
2022/05/15 07:44:47;;;;;;;9.30;4.77;;;;;17.50;101508.00;;;;4925146;29;20244;-71
2022/05/15 07:47:35;;;;;;;13.33;4.73;;;;;17.70;101497.00;;;;4923741;29;20724;-69
2022/05/15 07:50:21;;;;;;;8.17;4.73;;;;;17.80;101509.00;;;;4930935;29;20265;-70
2022/05/15 07:53:07;;;;;;;12.20;5.00;;;;;18.00;101499.00;;;;4922158;29;20264;-71
2022/05/15 07:55:55;;;;;;;8.93;5.30;;;;;18.10;101478.00;;;;4930672;29;20220;-71
2022/05/15 07:58:43;;;;;;;9.33;4.30;;;;;18.30;101507.00;;;;4918725;29;20232;-72
2022/05/15 08:01:29;;;;;;;9.60;4.27;;;;;18.30;101507.00;;;;4929324;29;20300;-71
2022/05/15 08:04:18;;;;;;;6.30;4.13;;;;;18.40;101502.00;;;;4922233;29;20240;-72
2022/05/15 08:10:10;;;;;;;7.80;4.33;;;;;18.90;101510.00;;;;4929278;29;20344;-72
2022/05/15 08:12:57;;;;;;;12.03;4.27;;;;;18.90;101492.00;;;;4927080;29;20906;-71
2022/05/15 08:15:44;;;;;;;7.10;3.97;;;;;19.10;101499.00;;;;4924994;29;20367;-70
2022/05/15 08:24:42;;;;;;;11.20;3.90;;;;;19.70;101484.00;;;;4928363;29;20232;-71
2022/05/15 08:27:29;;;;;;;10.03;4.50;;;;;19.80;101502.00;;;;4928231;29;20213;-71
2022/05/15 08:30:15;;;;;;;9.53;4.23;;;;;20.00;101500.00;;;;4927275;29;20273;-71
2022/05/15 08:33:02;;;;;;;8.30;3.60;;;;;20.20;101491.00;;;;4927766;29;20213;-72
2022/05/15 08:35:49;;;;;;;8.13;3.93;;;;;20.20;101495.00;;;;4928927;29;20232;-71
2022/05/15 08:38:38;;;;;;;9.40;4.10;;;;;20.40;101504.00;;;;4927365;29;20232;-71
2022/05/15 08:41:36;;;;;;;9.67;3.60;;;;;20.60;101488.00;;;;4926235;29;20284;-71
2022/05/15 08:44:29;;;;;;;7.80;3.30;;;;;20.90;101491.00;;;;4925020;29;20281;-71
2022/05/15 08:47:18;;;;;;;8.93;3.87;;;;;20.90;101486.00;;;;4928341;29;20210;-71
2022/05/15 08:50:09;;;;;;;8.63;3.70;;;;;21.00;101494.00;;;;4928450;29;20301;-71
2022/05/15 08:52:58;;;;;;;14.03;4.47;;;;;21.00;101479.00;;;;4927136;29;20281;-73
2022/05/15 08:55:50;;;;;;;6.53;3.60;;;;;21.20;101484.00;;;;4928314;29;20798;-70
2022/05/15 08:58:49;;;;;;;8.80;4.10;;;;;21.20;101480.00;;;;4927078;29;20234;-71
2022/05/15 09:01:37;;;;;;;13.70;4.00;;;;;21.20;101481.00;;;;4926953;29;20217;-72
2022/05/15 09:04:24;;;;;;;9.93;3.50;;;;;21.40;101483.00;;;;4924474;29;20221;-74
2022/05/15 09:07:28;;;;;;;11.23;3.53;;;;;21.50;101488.00;;;;4926366;29;20214;-72
2022/05/15 09:10:26;;;;;;;10.67;3.17;;;;;21.70;101483.00;;;;4921696;29;20222;-69
2022/05/15 09:13:25;;;;;;;7.50;3.23;;;;;21.70;101460.00;;;;4921014;29;20806;-72
2022/05/15 09:16:17;;;;;;;7.90;3.33;;;;;21.90;101484.00;;;;4927232;29;20907;-69
2022/05/15 09:19:06;;;;;;;6.83;3.10;;;;;22.40;101482.00;;;;4922029;29;20225;-68
2022/05/15 09:21:54;;;;;;;8.37;3.23;;;;;22.40;101487.00;;;;4923512;29;20268;-69
2022/05/15 09:24:45;;;;;;;7.70;3.03;;;;;22.30;101481.00;;;;4924535;29;20258;-70
2022/05/15 09:27:32;;;;;;;11.23;3.13;;;;;22.40;101481.00;;;;4929984;29;20214;-71
2022/05/15 09:30:19;;;;;;;11.73;3.17;;;;;22.40;101478.00;;;;4926651;29;20215;-72
2022/05/15 09:33:07;;;;;;;9.33;3.23;;;;;22.40;101475.00;;;;4927542;29;20301;-69
2022/05/15 09:36:17;;;;;;;7.57;2.80;;;;;22.40;101477.00;;;;4926233;29;20223;-70
2022/05/15 09:39:24;;;;;;;4.43;2.60;;;;;22.60;101476.00;;;;4927509;29;20230;-69
2022/05/15 09:45:28;;;;;;;5.30;2.63;;;;;22.80;101470.00;;;;4927304;29;20266;-70
2022/05/15 09:48:14;;;;;;;10.67;2.90;;;;;22.90;101474.00;;;;4927641;29;20227;-70
2022/05/15 09:51:03;;;;;;;6.77;2.93;;;;;23.00;101446.00;;;;4925049;29;20348;-70
2022/05/15 09:53:52;;;;;;;6.93;3.13;;;;;23.00;101467.00;;;;4925610;29;20299;-71
2022/05/15 09:56:41;;;;;;;7.10;3.33;;;;;23.20;101457.00;;;;4925877;29;20831;-70
2022/05/15 09:59:28;;;;;;;8.33;2.60;;;;;23.30;101459.00;;;;4926549;29;20263;-71
2022/05/15 10:02:21;;;;;;;8.37;2.90;;;;;23.40;101460.00;;;;4924863;29;20726;-70
2022/05/15 10:05:16;;;;;;;6.80;2.83;;;;;23.60;101465.00;;;;4927103;29;20780;-70
2022/05/15 10:08:08;;;;;;;9.30;2.67;;;;;23.80;101462.00;;;;4923560;29;20211;-70
2022/05/15 10:10:59;;;;;;;7.77;2.50;;;;;23.50;101456.00;;;;4926443;29;20209;-71
2022/05/15 10:13:50;;;;;;;6.63;3.03;;;;;23.40;101467.00;;;;4926132;29;20229;-71
2022/05/15 10:16:44;;;;;;;7.83;2.90;;;;;23.60;101456.00;;;;4927586;29;20937;-71
2022/05/15 10:19:39;;;;;;;10.27;2.90;;;;;24.00;101458.00;;;;4921591;29;20236;-74
2022/05/15 10:22:34;;;;;;;9.63;2.93;;;;;24.00;101458.00;;;;4923230;29;20205;-72
2022/05/15 10:25:44;;;;;;;4.73;2.57;;;;;24.10;101458.00;;;;4927330;29;20248;-72
2022/05/15 10:28:38;;;;;;;7.80;2.50;;;;;24.20;101452.00;;;;4926863;29;20682;-71
2022/05/15 10:31:29;;;;;;;7.50;2.70;;;;;24.10;101437.00;;;;4927442;29;20269;-71
2022/05/15 10:34:21;;;;;;;6.07;2.53;;;;;24.20;101444.00;;;;4924450;29;20320;-72
2022/05/15 10:37:35;;;;;;;7.90;2.50;;;;;24.40;101433.00;;;;4925043;29;20740;-73
2022/05/15 10:40:29;;;;;;;12.13;2.60;;;;;24.60;101434.00;;;;4926032;29;20989;-71
2022/05/15 10:43:34;;;;;;;12.17;2.77;;;;;24.80;101437.00;;;;4925822;29;20229;-73
2022/05/15 10:46:32;;;;;;;6.37;2.80;;;;;24.80;101438.00;;;;4925730;29;20701;-72
2022/05/15 10:49:32;;;;;;;9.17;2.63;;;;;24.80;101444.00;;;;4926928;29;20593;-71
2022/05/15 10:52:34;;;;;;;5.33;2.60;;;;;24.90;101430.00;;;;4925554;29;20300;-70
2022/05/15 10:58:41;;;;;;;8.70;3.00;;;;;25.00;101434.00;;;;4925456;29;20242;-71
2022/05/15 11:01:36;;;;;;;9.07;3.00;;;;;25.10;101424.00;;;;4927239;29;20576;-71
2022/05/15 11:04:38;;;;;;;2.80;2.07;;;;;25.00;101393.00;;;;4926118;29;20248;-71
2022/05/15 11:07:33;;;;;;;6.53;2.40;;;;;25.30;101420.00;;;;4927419;29;20221;-71
2022/05/15 11:10:25;;;;;;;8.87;3.00;;;;;25.70;101415.00;;;;4924717;29;20248;-72
2022/05/15 11:13:20;;;;;;;8.50;2.80;;;;;25.50;101413.00;;;;4930215;29;20539;-71
2022/05/15 11:16:11;;;;;;;6.67;3.07;;;;;25.70;101409.00;;;;4921396;29;20226;-72
2022/05/15 11:19:22;;;;;;;5.17;2.80;;;;;25.70;101404.00;;;;4925579;29;20208;-72
2022/05/15 11:22:22;;;;;;;9.93;2.30;;;;;25.90;101399.00;;;;4926928;29;20208;-72
2022/05/15 11:25:16;;;;;;;5.60;2.30;;;;;26.00;101401.00;;;;4930515;29;20241;-73
2022/05/15 11:28:09;;;;;;;7.93;2.33;;;;;26.10;101389.00;;;;4926550;29;20212;-72
2022/05/15 11:31:02;;;;;;;7.03;2.43;;;;;26.20;101390.00;;;;4925581;29;20213;-72
2022/05/15 11:33:53;;;;;;;9.23;2.53;;;;;26.10;101390.00;;;;4924099;29;20229;-72
2022/05/15 11:36:41;;;;;;;5.87;2.30;;;;;26.00;101374.00;;;;4931436;29;20322;-72
2022/05/15 11:39:27;;;;;;;5.67;2.47;;;;;26.00;101380.00;;;;4923107;29;20245;-72
2022/05/15 11:42:18;;;;;;;4.67;2.33;;;;;26.20;101380.00;;;;4923314;29;20345;-72
2022/05/15 11:45:35;;;;;;;5.13;2.40;;;;;26.50;101384.00;;;;4926614;29;20293;-72
2022/05/15 11:48:24;;;;;;;7.18;1.92;;;;;26.60;101378.00;;;;4940175;29;20593;-72
2022/05/15 11:51:28;;;;;;;5.20;2.03;;;;;26.80;101390.00;;;;4948079;29;20629;-73
2022/05/15 11:54:30;;;;;;;3.70;2.00;;;;;27.00;101383.00;;;;4944174;29;20253;-72
2022/05/15 11:57:37;;;;;;;2.70;1.80;;;;;26.80;101380.00;;;;4945736;29;20237;-72
2022/05/15 12:00:26;;;;;;;4.93;2.00;;;;;26.90;101374.00;;;;4949586;29;20258;-71
2022/05/15 12:03:41;;;;;;;5.23;2.30;;;;;26.90;101371.00;;;;4944503;29;20285;-71
2022/05/15 12:06:29;;;;;;;4.63;2.17;;;;;27.10;101369.00;;;;4945314;29;20216;-71
2022/05/15 12:09:50;;;;;;;5.37;2.00;;;;;27.30;101369.00;;;;4953752;29;20221;-72
2022/05/15 12:12:52;;;;;;;7.50;2.15;;;;;27.40;101363.00;;;;4938879;29;20249;-72
2022/05/15 12:15:46;;;;;;;5.75;2.20;;;;;27.60;101365.00;;;;4925072;29;20240;-72
2022/05/15 12:18:38;;;;;;;5.13;2.30;;;;;27.50;101367.00;;;;4921327;29;20216;-72
2022/05/15 12:21:33;;;;;;;5.60;2.00;;;;;27.50;101362.00;;;;4922487;29;20233;-71
2022/05/15 12:24:28;;;;;;;6.78;2.30;;;;;27.80;101347.00;;;;4929765;29;20373;-72
2022/05/15 12:27:21;;;;;;;7.35;2.10;;;;;27.90;101343.00;;;;4930730;29;20883;-71
2022/05/15 12:30:16;;;;;;;4.50;2.10;;;;;27.70;101348.00;;;;4917649;29;20221;-72
2022/05/15 12:33:07;;;;;;;4.47;2.15;;;;;27.90;101357.00;;;;4924598;29;20677;-72
2022/05/15 12:35:55;;;;;;;6.95;2.10;;;;;28.70;101344.00;;;;4919206;29;20229;-72
2022/05/15 12:38:45;;;;;;;7.65;2.58;;;;;28.50;101337.00;;;;4926673;29;20736;-71
2022/05/15 12:41:36;;;;;;;5.57;2.10;;;;;28.50;101340.00;;;;4927875;29;20232;-71
2022/05/15 12:44:32;;;;;;;5.43;2.30;;;;;28.60;101340.00;;;;4921532;29;20233;-72
2022/05/15 12:47:24;;;;;;;5.55;2.10;;;;;28.60;101336.00;;;;4929517;29;20228;-71
2022/05/15 12:50:15;;;;;;;3.15;1.98;;;;;28.50;101320.00;;;;4917696;29;21140;-69
2022/05/15 12:53:03;;;;;;;2.60;2.00;;;;;28.40;101325.00;;;;4923790;29;20225;-72
2022/05/15 12:55:50;;;;;;;5.43;2.33;;;;;28.50;101317.00;;;;4922893;29;20224;-72
2022/05/15 12:58:37;;;;;;;6.63;2.92;;;;;28.40;101319.00;;;;4927502;29;20232;-72
2022/05/15 13:01:26;;;;;;;4.28;2.20;;;;;28.60;101317.00;;;;4920340;29;20273;-72
2022/05/15 13:04:19;;;;;;;4.78;2.33;;;;;29.00;101307.00;;;;4925202;29;20368;-71
2022/05/15 13:07:08;;;;;;;7.35;2.25;;;;;28.70;101302.00;;;;4927582;29;20574;-72
2022/05/15 13:10:01;;;;;;;4.90;2.40;;;;;29.30;101315.00;;;;4927520;29;20288;-73
2022/05/15 13:12:50;;;;;;;4.63;2.33;;;;;29.10;101323.00;;;;4928985;29;20217;-71
2022/05/15 13:15:36;;;;;;;5.05;2.20;;;;;29.30;101308.00;;;;4926883;29;20221;-72
2022/05/15 13:18:25;;;;;;;6.18;2.00;;;;;29.70;101310.00;;;;4919249;29;20281;-73
2022/05/15 13:21:12;;;;;;;6.72;2.30;;;;;29.70;101311.00;;;;4929036;29;20225;-72
2022/05/15 13:24:00;;;;;;;5.38;2.15;;;;;29.50;101308.00;;;;4918812;29;20714;-72
2022/05/15 13:26:48;;;;;;;5.93;2.03;;;;;29.50;101312.00;;;;4921696;29;20209;-72
2022/05/15 13:29:39;;;;;;;5.93;2.08;;;;;29.70;101300.00;;;;4921378;29;20325;-71
2022/05/15 13:32:25;;;;;;;8.57;1.90;;;;;30.00;101289.00;;;;4923270;29;20304;-72
2022/05/15 13:35:15;;;;;;;8.88;2.13;;;;;29.60;101294.00;;;;4928893;29;20228;-71
2022/05/15 13:38:16;;;;;;;8.60;2.28;;;;;30.00;101292.00;;;;4923268;29;20217;-72
2022/05/15 13:44:13;;;;;;;6.05;2.20;;;;;29.80;101275.00;;;;4923934;29;20229;-73
2022/05/15 13:47:03;;;;;;;7.45;2.20;;;;;30.20;101280.00;;;;4922778;29;20555;-75
2022/05/15 13:49:52;;;;;;;4.05;1.75;;;;;30.00;101280.00;;;;4918042;29;20214;-73
2022/05/15 13:52:39;;;;;;;5.05;1.80;;;;;29.80;101270.00;;;;4920108;29;20213;-73
2022/05/15 13:55:39;;;;;;;3.13;2.00;;;;;29.90;101265.00;;;;4926926;29;20264;-73
2022/05/15 13:58:42;;;;;;;4.57;1.83;;;;;30.00;101260.00;;;;4926375;29;20221;-71
2022/05/15 14:01:31;;;;;;;4.13;1.65;;;;;30.20;101269.00;;;;4925117;29;20248;-74
2022/05/15 14:04:37;;;;;;;4.60;2.03;;;;;30.40;101259.00;;;;4926698;29;20909;-72
2022/05/15 14:07:29;;;;;;;4.60;1.70;;;;;30.60;101246.00;;;;4922858;29;20328;-73
2022/05/15 14:10:22;;;;;;;4.72;2.17;;;;;30.80;101253.00;;;;4925670;29;20220;-69
2022/05/15 14:13:11;;;;;;;4.93;2.00;;;;;30.60;101251.00;;;;4925712;29;20213;-72
2022/05/15 14:15:58;;;;;;;3.72;1.73;;;;;30.90;101245.00;;;;4926963;29;20353;-74
2022/05/15 14:18:44;;;;;;;6.35;1.70;;;;;31.00;101242.00;;;;4925029;29;20269;-72
2022/05/15 14:21:31;;;;;;;2.42;1.60;;;;;31.10;101243.00;;;;4926405;29;20240;-73